Time;durP1;ratioP1;P1;durP2;ratioP2;P2;SDS_P1;SDS_P2;PMS_P1;PMS_P2;Temp;Humidity;BMP_temperature;BMP_pressure;BME280_temperature;BME280_humidity;BME280_pressure;Samples;Min_cycle;Max_cycle;Signal;HPM_P1;HPM_P2
2022/02/04 00:04:45;;;;;;;5.28;3.13;;;7.50;99.90;;;;;;5118841;28;20059;-67
2022/02/04 00:20:49;;;;;;;5.00;3.30;;;7.50;99.90;;;;;;5118080;28;20076;-68
2022/02/04 00:23:24;;;;;;;4.63;3.13;;;7.50;99.90;;;;;;5116193;28;20016;-66
2022/02/04 00:26:15;;;;;;;7.45;2.78;;;7.50;99.90;;;;;;5116576;28;20102;-67
2022/02/04 00:33:50;;;;;;;5.13;3.35;;;7.50;99.90;;;;;;5116832;28;20024;-67
2022/02/04 00:36:28;;;;;;;4.55;3.10;;;7.50;99.90;;;;;;5117166;28;20034;-67
2022/02/04 00:38:56;;;;;;;4.82;3.10;;;7.50;99.90;;;;;;5117139;28;20019;-67
2022/02/04 00:41:26;;;;;;;5.00;3.08;;;7.50;99.90;;;;;;5116805;28;20020;-69
2022/02/04 00:43:54;;;;;;;4.25;2.80;;;7.60;99.90;;;;;;5118360;28;20050;-69
2022/02/04 00:46:29;;;;;;;4.57;3.05;;;7.60;99.90;;;;;;5120059;28;20380;-67
2022/02/04 00:49:14;;;;;;;4.85;2.97;;;7.60;99.90;;;;;;5120165;28;20020;-68
2022/02/04 00:51:57;;;;;;;5.10;2.70;;;7.60;99.90;;;;;;5121575;28;20384;-67
2022/02/04 00:54:37;;;;;;;5.75;2.92;;;7.60;99.90;;;;;;5117372;28;20111;-67
2022/02/04 00:57:15;;;;;;;4.35;2.80;;;7.60;99.90;;;;;;5117894;28;20102;-67
2022/02/04 01:25:51;;;;;;;6.28;3.70;;;7.50;99.90;;;;;;5117126;28;20035;-68
2022/02/04 01:27:17;;;;;;;4.55;3.15;;;7.50;99.90;;;;;;5116465;28;20055;-66
2022/02/04 01:29:56;;;;;;;4.80;3.67;;;7.50;99.90;;;;;;5116118;28;20469;-66
2022/02/04 01:32:21;;;;;;;5.00;3.17;;;7.50;99.90;;;;;;5115396;28;20019;-68
2022/02/04 01:34:47;;;;;;;3.70;2.97;;;7.50;99.90;;;;;;5116693;28;20034;-66
2022/02/04 01:37:13;;;;;;;4.77;3.67;;;7.50;99.90;;;;;;5117091;28;20261;-67
2022/02/04 01:39:38;;;;;;;6.67;3.20;;;7.50;99.90;;;;;;5116779;28;20054;-67
2022/02/04 01:42:04;;;;;;;5.27;3.67;;;7.50;99.90;;;;;;5114211;28;20303;-66
2022/02/04 01:44:30;;;;;;;7.28;3.65;;;7.50;99.90;;;;;;5115101;28;20023;-66
2022/02/04 01:46:56;;;;;;;5.37;3.57;;;7.50;99.90;;;;;;5115106;28;20468;-66
2022/02/04 01:49:24;;;;;;;6.15;4.20;;;7.50;99.90;;;;;;5113989;28;20314;-66
2022/02/04 01:51:50;;;;;;;8.52;4.60;;;7.50;99.90;;;;;;5115532;28;20023;-66
2022/02/04 01:54:16;;;;;;;5.68;3.45;;;7.50;99.90;;;;;;5115452;28;20415;-66
2022/02/04 01:56:43;;;;;;;5.72;4.40;;;7.50;99.90;;;;;;5115592;28;20032;-67
2022/02/04 01:59:09;;;;;;;6.63;4.28;;;7.50;99.90;;;;;;5115147;28;20075;-67
2022/02/04 02:01:35;;;;;;;7.37;4.60;;;7.50;99.90;;;;;;5113961;28;20035;-67
2022/02/04 02:04:04;;;;;;;7.50;5.00;;;7.50;99.90;;;;;;5115352;28;20483;-67
2022/02/04 02:06:45;;;;;;;7.47;4.57;;;7.60;99.90;;;;;;5113751;28;20261;-67
2022/02/04 02:09:11;;;;;;;7.00;4.43;;;7.60;99.90;;;;;;5115546;28;20038;-67
2022/02/04 02:11:37;;;;;;;7.20;5.00;;;7.60;99.90;;;;;;5116008;28;20027;-67
2022/02/04 02:14:07;;;;;;;10.17;5.40;;;7.60;99.90;;;;;;5115731;28;20097;-67
2022/02/04 02:54:33;;;;;;;9.25;6.10;;;7.50;99.90;;;;;;5114367;28;20050;-67
2022/02/04 02:59:36;;;;;;;8.45;5.78;;;7.50;99.90;;;;;;5113936;28;20432;-67
2022/02/04 03:02:02;;;;;;;17.15;7.57;;;7.50;99.90;;;;;;5114566;28;20528;-67
2022/02/04 03:04:28;;;;;;;9.35;6.28;;;7.60;99.90;;;;;;5114170;28;20118;-67
2022/02/04 03:06:54;;;;;;;9.10;5.30;;;7.50;99.90;;;;;;5114066;28;20388;-67
2022/02/04 03:09:19;;;;;;;10.37;6.90;;;7.50;99.90;;;;;;5113607;28;20055;-67
2022/02/04 03:11:45;;;;;;;11.27;6.27;;;7.50;99.90;;;;;;5112836;28;20473;-67
2022/02/04 03:14:11;;;;;;;9.63;6.33;;;7.50;99.90;;;;;;5113965;28;20024;-67
2022/02/04 03:16:37;;;;;;;8.73;5.85;;;7.50;99.90;;;;;;5114275;28;20020;-67
2022/02/04 03:19:05;;;;;;;10.82;6.40;;;7.50;99.90;;;;;;5113947;28;20062;-67
2022/02/04 03:21:38;;;;;;;11.20;5.95;;;7.40;99.90;;;;;;5114573;28;20047;-67
2022/02/04 03:24:09;;;;;;;10.05;6.00;;;7.40;99.90;;;;;;5114188;28;20015;-67
2022/02/04 03:26:45;;;;;;;10.80;6.70;;;7.40;99.90;;;;;;5114031;28;20378;-67
2022/02/04 03:29:11;;;;;;;8.63;6.15;;;7.40;99.90;;;;;;5112632;28;20020;-67
2022/02/04 03:31:45;;;;;;;9.85;6.47;;;7.40;99.90;;;;;;5113804;28;20027;-67
2022/02/04 03:34:11;;;;;;;9.63;6.50;;;7.40;99.90;;;;;;5114845;28;20490;-66
2022/02/04 03:36:37;;;;;;;9.17;5.70;;;7.40;99.90;;;;;;5113542;28;20106;-67
2022/02/04 03:39:03;;;;;;;11.03;6.37;;;7.40;99.90;;;;;;5112113;28;20034;-67
2022/02/04 03:41:29;;;;;;;;;;;7.40;99.90;;;;;;5114055;28;20038;-67
2022/02/04 03:43:55;;;;;;;9.93;6.22;;;7.40;99.90;;;;;;5113821;28;20352;-67
2022/02/04 03:46:20;;;;;;;8.03;5.77;;;7.40;99.90;;;;;;5113340;28;20026;-67
2022/02/04 03:48:46;;;;;;;10.07;5.67;;;7.40;99.90;;;;;;5113377;28;20035;-67
2022/02/04 03:51:11;;;;;;;10.30;6.27;;;7.30;99.90;;;;;;5113492;28;20076;-67
2022/02/04 03:53:37;;;;;;;11.07;6.37;;;7.40;99.90;;;;;;5113464;28;20035;-67
2022/02/04 03:56:03;;;;;;;9.43;6.13;;;7.30;99.90;;;;;;5113480;28;20073;-67
2022/02/04 03:58:31;;;;;;;9.82;5.93;;;7.40;99.90;;;;;;5113786;28;20468;-67
2022/02/04 04:00:58;;;;;;;8.98;6.15;;;7.30;99.90;;;;;;5115290;28;20027;-67
2022/02/04 04:03:23;;;;;;;9.77;6.82;;;7.30;99.90;;;;;;5116084;28;20026;-67
2022/02/04 04:05:50;;;;;;;10.90;6.20;;;7.30;99.90;;;;;;5118331;28;20032;-67
2022/02/04 04:08:18;;;;;;;11.30;6.65;;;7.30;99.90;;;;;;5116789;28;20070;-67
2022/02/04 04:10:44;;;;;;;9.15;6.25;;;7.30;99.90;;;;;;5118629;28;20490;-67
2022/02/04 04:13:11;;;;;;;10.18;6.07;;;7.20;99.90;;;;;;5118020;28;20023;-67
2022/02/04 04:15:36;;;;;;;9.35;6.38;;;7.20;99.90;;;;;;5117577;28;20043;-67
2022/02/04 04:18:03;;;;;;;11.10;6.60;;;7.20;99.90;;;;;;5115826;28;20019;-67
2022/02/04 04:20:31;;;;;;;8.18;5.85;;;7.30;99.90;;;;;;5117605;28;20264;-67
2022/02/04 04:22:57;;;;;;;9.25;5.93;;;7.20;99.90;;;;;;5117970;28;20030;-67
2022/02/04 04:25:23;;;;;;;;;;;7.20;99.90;;;;;;5117871;28;20031;-67
2022/02/04 04:27:49;;;;;;;8.60;5.55;;;7.20;99.90;;;;;;5117561;28;19904;-67
2022/02/04 04:30:18;;;;;;;9.82;5.80;;;7.20;99.90;;;;;;5116021;28;20024;-67
2022/02/04 04:32:45;;;;;;;8.73;5.68;;;7.20;99.90;;;;;;5116901;28;20494;-67
2022/02/04 04:35:13;;;;;;;10.52;5.43;;;7.20;99.90;;;;;;5116879;28;20341;-67
2022/02/04 04:37:56;;;;;;;7.32;5.30;;;7.20;99.90;;;;;;5116012;28;20027;-67
2022/02/04 05:29:23;;;;;;;10.27;6.17;;;6.80;99.90;;;;;;5117652;28;20059;-68
2022/02/04 05:31:49;;;;;;;8.80;6.00;;;6.90;99.90;;;;;;5116814;28;20492;-66
2022/02/04 05:34:19;;;;;;;8.18;5.72;;;6.90;99.90;;;;;;5119139;28;20119;-66
2022/02/04 05:36:47;;;;;;;8.85;6.30;;;6.90;99.90;;;;;;5117817;28;20088;-66
2022/02/04 05:39:15;;;;;;;8.55;5.78;;;6.80;99.90;;;;;;5116510;28;20044;-66
2022/02/04 05:41:45;;;;;;;9.25;5.75;;;6.90;99.90;;;;;;5115956;28;20027;-66
2022/02/04 05:44:13;;;;;;;9.30;6.10;;;6.80;99.90;;;;;;5115987;28;20048;-66
2022/02/04 05:46:49;;;;;;;11.10;6.20;;;6.90;99.90;;;;;;5115461;28;20070;-66
2022/02/04 05:49:18;;;;;;;10.00;6.47;;;6.80;99.90;;;;;;5115776;28;20020;-66
2022/02/04 05:54:36;;;;;;;10.05;6.15;;;6.90;99.90;;;;;;5114572;28;20410;-66
2022/02/04 05:57:12;;;;;;;10.23;6.13;;;6.80;99.90;;;;;;5115125;28;20038;-66
2022/02/04 06:04:59;;;;;;;10.20;6.88;;;6.60;99.90;;;;;;5093643;28;20146;-71
2022/02/04 06:10:27;;;;;;;11.27;6.75;;;6.60;99.90;;;;;;5115731;28;20413;-69
2022/02/04 06:23:18;;;;;;;7.90;5.65;;;6.40;99.90;;;;;;5113425;28;20135;-69
2022/02/04 06:25:44;;;;;;;11.30;6.10;;;6.40;99.90;;;;;;5114712;28;20011;-70
2022/02/04 06:28:10;;;;;;;7.63;5.38;;;6.40;99.90;;;;;;5113164;28;20028;-71
2022/02/04 06:30:38;;;;;;;8.55;5.75;;;6.50;99.90;;;;;;5114884;28;20031;-69
2022/02/04 06:33:04;;;;;;;10.57;5.78;;;6.50;99.90;;;;;;5115243;28;20023;-68
2022/02/04 06:35:31;;;;;;;9.38;6.10;;;6.50;99.90;;;;;;5115273;28;20055;-69
2022/02/04 06:37:58;;;;;;;11.15;5.65;;;6.50;99.90;;;;;;5114414;28;20032;-68
2022/02/04 06:40:23;;;;;;;8.70;5.72;;;6.50;99.90;;;;;;5113271;28;20015;-68
2022/02/04 06:42:49;;;;;;;9.77;6.07;;;6.50;99.90;;;;;;5114391;28;20513;-68
2022/02/04 06:45:15;;;;;;;9.23;6.20;;;6.50;99.90;;;;;;5115103;28;20068;-68
2022/02/04 06:47:42;;;;;;;8.47;5.30;;;6.60;99.90;;;;;;5114262;28;20074;-69
2022/02/04 06:50:08;;;;;;;10.05;6.47;;;6.60;99.90;;;;;;5114096;28;20023;-68
2022/02/04 06:52:34;;;;;;;10.77;6.60;;;6.60;99.90;;;;;;5112307;28;20195;-69
2022/02/04 06:54:59;;;;;;;10.47;6.57;;;6.60;99.90;;;;;;5113293;28;20527;-70
2022/02/04 06:57:25;;;;;;;21.77;7.43;;;6.60;99.90;;;;;;5114706;28;20031;-71
2022/02/04 06:59:52;;;;;;;9.27;6.40;;;6.60;99.90;;;;;;5113847;28;20032;-67
2022/02/04 07:02:21;;;;;;;10.82;7.70;;;6.70;99.90;;;;;;5113998;28;20016;-67
2022/02/04 07:04:46;;;;;;;9.32;6.78;;;6.60;99.90;;;;;;5113776;28;20024;-67
2022/02/04 07:07:13;;;;;;;12.13;7.53;;;6.50;99.90;;;;;;5113672;28;20380;-66
2022/02/04 07:10:05;;;;;;;11.77;7.75;;;6.50;99.90;;;;;;5113703;28;20020;-63
2022/02/04 07:19:55;;;;;;;13.50;8.00;;;6.30;99.90;;;;;;5113848;28;20023;-61
2022/02/04 07:22:26;;;;;;;12.98;8.40;;;6.30;99.90;;;;;;5113610;28;20026;-63
2022/02/04 07:24:56;;;;;;;12.80;7.88;;;6.30;99.90;;;;;;5113540;28;20084;-60
2022/02/04 07:27:22;;;;;;;14.45;8.45;;;6.20;99.90;;;;;;5113525;28;20386;-61
2022/02/04 07:29:50;;;;;;;12.68;8.05;;;6.20;99.90;;;;;;5113625;28;20110;-69
2022/02/04 07:32:24;;;;;;;14.77;9.15;;;6.20;99.90;;;;;;5113542;28;20039;-71
2022/02/04 07:42:54;;;;;;;12.85;7.88;;;6.20;99.90;;;;;;5117563;28;20107;-66
2022/02/04 07:45:21;;;;;;;13.87;7.47;;;6.10;99.90;;;;;;5117396;28;20102;-67
2022/02/04 07:47:48;;;;;;;14.60;8.20;;;6.20;99.90;;;;;;5117519;28;20024;-67
2022/02/04 07:50:14;;;;;;;14.85;9.02;;;6.20;99.90;;;;;;5116928;28;20088;-67
2022/02/04 07:52:39;;;;;;;13.40;8.80;;;6.20;99.90;;;;;;5117053;28;20055;-66
2022/02/04 07:55:05;;;;;;;13.93;8.30;;;6.40;99.90;;;;;;5117247;28;20249;-66
2022/02/04 07:57:34;;;;;;;15.40;9.27;;;6.40;99.90;;;;;;5116978;28;20461;-66
2022/02/04 08:00:03;;;;;;;12.55;7.80;;;6.50;99.90;;;;;;5116686;28;20445;-67
2022/02/04 08:02:28;;;;;;;14.13;8.13;;;6.60;99.90;;;;;;5115393;28;20023;-66
2022/02/04 08:04:59;;;;;;;15.33;9.23;;;6.60;99.90;;;;;;5115604;28;20020;-66
2022/02/04 08:07:28;;;;;;;14.95;7.68;;;6.70;99.90;;;;;;5116450;28;20019;-64
2022/02/04 08:10:12;;;;;;;23.30;11.73;;;6.70;99.90;;;;;;5116456;28;20110;-66
2022/02/04 08:18:18;;;;;;;19.52;9.65;;;6.80;99.90;;;;;;5116755;28;20460;-66
2022/02/04 08:21:09;;;;;;;13.90;8.77;;;6.90;99.90;;;;;;5116389;28;20466;-64
2022/02/04 08:34:10;;;;;;;12.70;8.20;;;7.10;99.90;;;;;;5117006;28;20031;-71
2022/02/04 08:52:50;;;;;;;10.52;7.15;;;7.60;99.90;;;;;;5116183;28;20472;-69
2022/02/04 08:55:24;;;;;;;11.63;7.30;;;7.70;99.90;;;;;;5114678;28;20114;-67
2022/02/04 08:58:03;;;;;;;12.30;7.18;;;7.90;99.90;;;;;;5116500;28;20028;-68
2022/02/04 09:00:35;;;;;;;18.35;9.55;;;7.90;99.90;;;;;;5115978;28;20027;-68
2022/02/04 09:03:13;;;;;;;17.13;8.45;;;7.80;99.90;;;;;;5116349;27;20016;-68
2022/02/04 09:05:42;;;;;;;13.38;8.48;;;7.70;99.90;;;;;;5116221;28;20020;-68
2022/02/04 09:08:21;;;;;;;12.35;8.30;;;7.80;99.90;;;;;;5116208;28;20026;-69
2022/02/04 09:10:49;;;;;;;12.43;8.23;;;7.80;99.90;;;;;;5117690;28;20039;-68
2022/02/04 09:18:59;;;;;;;12.75;8.10;;;7.70;99.90;;;;;;5116824;28;20104;-69
2022/02/04 09:24:12;;;;;;;13.93;8.23;;;7.90;99.90;;;;;;5086650;28;20032;-69
2022/02/04 09:26:39;;;;;;;10.32;6.88;;;8.00;99.90;;;;;;5114811;28;20019;-67
2022/02/04 09:29:05;;;;;;;13.70;8.18;;;8.10;99.90;;;;;;5115283;28;20102;-67
2022/02/04 09:31:33;;;;;;;13.43;7.55;;;8.20;99.90;;;;;;5114749;28;20533;-66
2022/02/04 09:33:59;;;;;;;9.80;6.50;;;8.30;99.90;;;;;;5115044;28;20039;-66
2022/02/04 09:36:24;;;;;;;10.83;7.07;;;8.30;99.90;;;;;;5113725;28;20023;-67
2022/02/04 09:38:50;;;;;;;12.27;7.27;;;8.30;99.90;;;;;;5114950;28;20034;-67
2022/02/04 09:41:22;;;;;;;11.17;6.83;;;8.40;99.90;;;;;;5115035;28;20053;-67
2022/02/04 09:43:49;;;;;;;8.98;5.47;;;8.50;99.90;;;;;;5114509;28;20012;-67
2022/02/04 09:46:15;;;;;;;10.68;5.82;;;8.70;99.90;;;;;;5113560;28;20306;-66
2022/02/04 09:48:43;;;;;;;8.00;4.97;;;8.80;99.90;;;;;;5113508;28;20053;-67
2022/02/04 09:51:12;;;;;;;7.82;5.10;;;9.10;99.90;;;;;;5114871;28;20020;-66
2022/02/04 10:07:52;;;;;;;4.88;3.30;;;11.30;99.90;;;;;;5115024;28;20060;-67
2022/02/04 10:18:34;;;;;;;4.78;3.08;;;11.50;99.90;;;;;;5114646;28;20031;-67
2022/02/04 10:21:08;;;;;;;3.70;2.58;;;11.30;99.90;;;;;;5114890;28;20093;-67
2022/02/04 10:23:50;;;;;;;4.80;2.80;;;10.80;99.90;;;;;;5115073;28;20023;-66
2022/02/04 10:26:17;;;;;;;5.07;2.67;;;10.60;99.90;;;;;;5114631;28;20031;-66
2022/02/04 10:28:44;;;;;;;4.57;3.03;;;10.40;99.90;;;;;;5114602;28;20035;-66
2022/02/04 10:31:15;;;;;;;3.65;2.60;;;10.30;99.90;;;;;;5114140;28;20103;-66
2022/02/04 10:34:10;;;;;;;3.95;2.72;;;10.30;99.90;;;;;;5114216;28;20023;-66
2022/02/04 10:39:39;;;;;;;2.42;1.67;;;12.20;99.90;;;;;;5114321;28;20031;-67
2022/02/04 10:47:55;;;;;;;1.40;1.15;;;14.70;99.90;;;;;;5114328;28;20096;-66
2022/02/04 11:01:58;;;;;;;4.68;1.70;;;11.90;99.90;;;;;;5114006;28;20016;-67
2022/02/04 11:55:11;;;;;;;1.63;1.30;;;8.90;99.90;;;;;;5113321;28;20062;-67
2022/02/04 11:57:59;;;;;;;1.80;1.20;;;8.90;99.90;;;;;;5112979;28;20059;-67
2022/02/04 12:00:27;;;;;;;1.95;1.25;;;9.00;99.90;;;;;;5113727;28;20019;-66
2022/02/04 12:02:54;;;;;;;1.67;0.85;;;9.20;99.90;;;;;;5113605;28;20046;-66
2022/02/04 12:05:20;;;;;;;1.70;1.00;;;9.40;99.90;;;;;;5114094;28;20020;-67
2022/02/04 12:07:47;;;;;;;2.67;1.10;;;9.60;99.90;;;;;;5115207;28;20081;-65
2022/02/04 12:10:13;;;;;;;1.88;1.05;;;9.80;99.90;;;;;;5114727;28;20019;-66
2022/02/04 12:12:57;;;;;;;2.77;1.10;;;9.90;99.90;;;;;;5113746;28;20031;-65
2022/02/04 12:15:31;;;;;;;2.83;1.50;;;9.80;99.90;;;;;;5113530;28;20080;-66
2022/02/04 12:17:57;;;;;;;2.63;1.23;;;9.60;99.90;;;;;;5111484;28;20110;-64
2022/02/04 12:20:50;;;;;;;6.13;1.20;;;9.60;99.90;;;;;;5113375;28;20418;-67
2022/02/04 12:23:27;;;;;;;2.20;1.40;;;9.40;99.90;;;;;;5116455;28;20098;-66
2022/02/04 12:25:58;;;;;;;2.65;1.70;;;9.40;99.90;;;;;;5116601;28;20019;-66
2022/02/04 12:29:05;;;;;;;3.75;2.42;;;9.40;99.90;;;;;;5116574;28;20025;-66
2022/02/04 12:31:33;;;;;;;2.55;1.60;;;9.40;99.90;;;;;;5116609;28;20436;-65
2022/02/04 12:34:02;;;;;;;2.47;1.30;;;9.40;99.90;;;;;;5116898;28;20461;-65
2022/02/04 12:36:32;;;;;;;2.03;1.23;;;9.50;99.90;;;;;;5114968;28;20433;-66
2022/02/04 12:39:00;;;;;;;1.98;1.15;;;9.50;99.90;;;;;;5114728;28;20067;-68
2022/02/04 12:41:36;;;;;;;2.10;0.82;;;9.60;99.90;;;;;;5116282;28;20066;-66
2022/02/04 12:44:09;;;;;;;1.80;0.80;;;9.70;99.90;;;;;;5116266;28;20072;-66
2022/02/04 12:46:44;;;;;;;2.20;1.60;;;9.80;99.90;;;;;;5116470;28;20050;-68
2022/02/04 12:49:12;;;;;;;1.65;0.85;;;9.80;99.90;;;;;;5114716;28;20437;-67
2022/02/04 12:52:03;;;;;;;1.98;1.45;;;9.90;99.90;;;;;;5114985;28;20030;-67
2022/02/04 12:54:40;;;;;;;1.80;1.45;;;9.90;99.90;;;;;;5116395;28;20035;-65
2022/02/04 13:10:34;;;;;;;1.77;0.38;;;9.80;99.90;;;;;;5116394;28;20055;-66
2022/02/04 13:13:07;;;;;;;0.50;0.40;;;9.70;99.90;;;;;;5114887;28;20143;-66
2022/02/04 13:15:34;;;;;;;1.17;0.50;;;9.70;99.90;;;;;;5118574;28;20024;-67
2022/02/04 13:18:07;;;;;;;0.38;0.25;;;9.70;99.90;;;;;;5127216;28;20015;-66
2022/02/04 13:20:35;;;;;;;0.80;0.50;;;9.50;99.90;;;;;;5122342;28;20015;-73
2022/02/04 13:23:06;;;;;;;0.80;0.70;;;9.50;99.90;;;;;;5115091;28;20444;-73
2022/02/04 13:25:34;;;;;;;1.58;0.75;;;9.40;99.90;;;;;;5116001;28;20024;-73
2022/02/04 13:28:05;;;;;;;1.00;0.68;;;9.40;99.90;;;;;;5114383;28;20495;-71
2022/02/04 13:30:36;;;;;;;1.10;0.65;;;9.30;99.90;;;;;;5114347;28;20110;-72
2022/02/04 13:33:03;;;;;;;1.35;0.60;;;9.20;99.90;;;;;;5115356;28;20415;-72
2022/02/04 13:35:38;;;;;;;1.23;0.50;;;9.20;99.90;;;;;;5117155;28;20035;-72
2022/02/04 13:38:22;;;;;;;1.30;0.77;;;9.20;99.90;;;;;;5115836;28;20033;-72
2022/02/04 13:41:08;;;;;;;0.82;0.50;;;9.20;99.90;;;;;;5113963;28;20051;-72
2022/02/04 13:43:44;;;;;;;0.65;0.50;;;9.20;99.90;;;;;;5113920;28;20027;-67
2022/02/04 13:46:24;;;;;;;0.90;0.40;;;9.10;99.90;;;;;;5115353;28;20027;-66
2022/02/04 13:57:08;;;;;;;1.02;0.50;;;9.00;99.90;;;;;;5117472;28;20024;-67
2022/02/04 13:59:55;;;;;;;0.98;0.50;;;9.00;99.90;;;;;;5117615;28;20027;-67
2022/02/04 14:02:27;;;;;;;1.80;0.60;;;9.00;99.90;;;;;;5116426;28;20028;-67
2022/02/04 14:05:02;;;;;;;0.88;0.50;;;9.00;99.90;;;;;;5115366;28;20392;-67
2022/02/04 14:07:36;;;;;;;0.93;0.57;;;9.00;99.90;;;;;;5115362;28;20077;-67
2022/02/04 14:10:17;;;;;;;0.70;0.40;;;9.00;99.90;;;;;;5114969;28;20360;-67
2022/02/04 14:12:43;;;;;;;2.17;0.60;;;9.00;99.90;;;;;;5115197;28;20027;-67
2022/02/04 14:15:08;;;;;;;0.90;0.60;;;9.00;99.90;;;;;;5113081;28;20027;-66
2022/02/04 14:17:36;;;;;;;0.70;0.40;;;9.00;99.90;;;;;;5114534;28;20032;-66
2022/02/04 14:20:02;;;;;;;0.80;0.45;;;9.00;99.90;;;;;;5114317;28;20020;-66
2022/02/04 14:22:27;;;;;;;0.75;0.40;;;8.90;99.90;;;;;;5114383;28;20058;-66
2022/02/04 14:24:53;;;;;;;1.00;0.50;;;8.80;99.90;;;;;;5114372;28;20051;-66
2022/02/04 14:27:19;;;;;;;1.20;1.00;;;8.80;99.90;;;;;;5112865;28;20476;-66
2022/02/04 14:29:58;;;;;;;6.75;1.92;;;8.80;99.90;;;;;;5114311;28;20027;-67
2022/02/04 14:32:28;;;;;;;0.63;0.40;;;8.80;99.90;;;;;;5113067;28;20433;-67
2022/02/04 14:35:11;;;;;;;0.60;0.50;;;8.80;99.90;;;;;;5114492;28;20098;-67
2022/02/04 14:54:03;;;;;;;6.43;2.77;;;9.00;99.90;;;;;;5115212;28;20027;-66
2022/02/04 15:00:04;;;;;;;4.00;1.50;;;9.00;99.90;;;;;;5115527;28;20387;-67
2022/02/04 15:02:11;;;;;;;3.50;1.35;;;9.00;99.90;;;;;;5115613;28;20028;-67
2022/02/04 15:05:12;;;;;;;1.92;0.70;;;9.00;99.90;;;;;;5112394;28;20042;-67
2022/02/04 15:07:33;;;;;;;5.60;2.00;;;9.00;99.90;;;;;;5111318;28;20024;-67
2022/02/04 15:10:01;;;;;;;9.80;2.70;;;9.10;99.90;;;;;;5113540;28;20100;-66
2022/02/04 15:12:27;;;;;;;3.85;1.52;;;9.00;99.90;;;;;;5112124;28;20034;-66
2022/02/04 15:14:53;;;;;;;4.13;1.80;;;9.10;99.90;;;;;;5112552;28;20023;-66
2022/02/04 15:17:18;;;;;;;3.63;1.10;;;9.00;99.90;;;;;;5113672;28;20055;-66
2022/02/04 15:19:45;;;;;;;1.50;0.70;;;9.00;99.90;;;;;;5113461;28;20024;-66
2022/02/04 15:22:11;;;;;;;2.38;1.10;;;9.00;99.90;;;;;;5113382;28;20487;-67
2022/02/04 15:24:37;;;;;;;3.35;1.25;;;9.00;99.90;;;;;;5113594;28;20028;-66
2022/02/04 15:27:04;;;;;;;1.70;1.27;;;9.00;99.90;;;;;;5113849;28;20115;-66
2022/02/04 15:29:32;;;;;;;3.08;1.10;;;9.00;99.90;;;;;;5113728;28;20047;-66
2022/02/04 15:32:00;;;;;;;1.95;0.95;;;8.90;99.90;;;;;;5115651;28;20019;-67
2022/02/04 15:34:26;;;;;;;1.42;0.80;;;8.90;99.90;;;;;;5117778;28;20027;-66
2022/02/04 15:36:53;;;;;;;2.45;0.68;;;8.90;99.90;;;;;;5120378;28;20023;-66
2022/02/04 15:39:25;;;;;;;2.40;0.85;;;8.90;99.90;;;;;;5115786;28;20032;-67
2022/02/04 15:41:54;;;;;;;1.23;0.82;;;8.90;99.90;;;;;;5115811;28;20023;-67
2022/02/04 15:49:55;;;;;;;3.33;1.50;;;8.80;99.90;;;;;;5113382;28;20361;-67
2022/02/04 15:55:07;;;;;;;3.58;1.50;;;8.80;99.90;;;;;;5114451;28;20059;-67
2022/02/04 15:57:47;;;;;;;1.75;0.90;;;8.80;99.90;;;;;;5117281;28;20026;-67
2022/02/04 16:05:09;;;;;;;3.05;1.60;;;8.80;99.90;;;;;;5116657;28;20099;-67
2022/02/04 16:07:36;;;;;;;1.58;0.77;;;8.80;99.90;;;;;;5116739;28;20332;-66
2022/02/04 16:10:20;;;;;;;3.58;0.90;;;8.80;99.90;;;;;;5117243;28;20027;-66
2022/02/04 16:12:53;;;;;;;1.85;1.08;;;8.80;99.90;;;;;;5117522;28;20034;-66
2022/02/04 16:16:07;;;;;;;3.30;1.27;;;8.80;99.90;;;;;;5116246;28;20030;-65
2022/02/04 16:18:16;;;;;;;5.63;2.60;;;8.80;99.90;;;;;;5109312;28;20075;-66
2022/02/04 16:23:33;;;;;;;6.30;2.50;;;8.80;99.90;;;;;;5117332;28;20024;-66
2022/02/04 16:28:57;;;;;;;1.88;0.88;;;8.80;99.90;;;;;;5081944;28;20044;-66
2022/02/04 16:31:25;;;;;;;2.60;1.42;;;8.80;99.90;;;;;;5116566;28;20038;-67
2022/02/04 16:33:51;;;;;;;3.45;1.33;;;8.80;99.90;;;;;;5116454;28;20120;-66
2022/02/04 16:36:20;;;;;;;4.72;1.80;;;8.80;99.90;;;;;;5116828;28;20063;-67
2022/02/04 16:38:53;;;;;;;1.85;1.00;;;8.80;99.90;;;;;;5116652;28;20055;-66
2022/02/04 16:41:26;;;;;;;1.90;0.90;;;8.80;99.90;;;;;;5099101;28;20392;-65
2022/02/04 16:43:51;;;;;;;1.98;1.13;;;8.80;99.90;;;;;;5117191;28;20016;-66
2022/02/04 16:46:17;;;;;;;2.10;1.00;;;8.70;99.90;;;;;;5115061;28;20028;-67
2022/02/04 16:48:43;;;;;;;1.90;1.03;;;8.70;99.90;;;;;;5116771;28;20269;-66
2022/02/04 16:51:10;;;;;;;1.77;0.90;;;8.60;99.90;;;;;;5116099;28;20369;-65
2022/02/04 16:53:36;;;;;;;5.28;2.35;;;8.60;99.90;;;;;;5115956;28;20076;-66
2022/02/04 16:56:03;;;;;;;1.35;0.77;;;8.60;99.90;;;;;;5115289;28;20075;-66
2022/02/04 16:58:29;;;;;;;2.17;0.85;;;8.60;99.90;;;;;;5115563;28;20031;-66
2022/02/04 17:00:55;;;;;;;1.63;1.00;;;8.50;99.90;;;;;;5116846;28;20027;-66
2022/02/04 17:03:22;;;;;;;2.90;2.08;;;8.40;99.90;;;;;;5117188;28;20034;-66
2022/02/04 17:08:21;;;;;;;1.50;0.88;;;8.30;99.90;;;;;;5116068;28;20461;-66
2022/02/04 17:10:50;;;;;;;4.03;2.20;;;8.30;99.90;;;;;;5116549;28;20110;-65
2022/02/04 17:13:17;;;;;;;3.03;1.00;;;8.20;99.90;;;;;;5115904;28;20019;-65
2022/02/04 17:15:44;;;;;;;1.92;1.23;;;8.20;99.90;;;;;;5116316;28;20024;-66
2022/02/04 17:18:11;;;;;;;2.53;1.35;;;8.20;99.90;;;;;;5115630;28;20369;-65
2022/02/04 17:20:38;;;;;;;3.33;1.38;;;8.20;99.90;;;;;;5115614;28;20030;-67
2022/02/04 17:23:08;;;;;;;3.25;1.63;;;8.20;99.90;;;;;;5115918;28;20016;-68
2022/02/04 17:25:35;;;;;;;2.75;1.20;;;8.20;99.90;;;;;;5116438;28;20098;-70
2022/02/04 17:28:02;;;;;;;1.85;1.15;;;8.20;99.90;;;;;;5117879;28;20127;-69
2022/02/04 17:30:28;;;;;;;1.70;1.25;;;8.20;99.90;;;;;;5117170;28;20030;-69
2022/02/04 17:32:54;;;;;;;3.42;1.63;;;8.10;99.90;;;;;;5114706;28;20492;-71
2022/02/04 17:35:22;;;;;;;2.63;1.33;;;8.10;99.90;;;;;;5116482;28;20027;-69
2022/02/04 17:37:55;;;;;;;2.00;1.00;;;8.10;99.90;;;;;;5115760;28;20467;-67
2022/02/04 17:40:21;;;;;;;2.97;1.75;;;8.10;99.90;;;;;;5115774;28;20028;-67
2022/02/04 17:42:47;;;;;;;1.88;1.00;;;8.10;99.90;;;;;;5116016;28;20028;-66
2022/02/04 17:45:18;;;;;;;2.72;1.08;;;8.10;99.90;;;;;;5115882;28;20031;-68
2022/02/04 17:47:51;;;;;;;1.80;0.93;;;8.10;99.90;;;;;;5115812;28;20494;-68
2022/02/04 17:50:24;;;;;;;1.40;0.80;;;8.10;99.90;;;;;;5117774;28;20030;-67
2022/02/04 17:52:57;;;;;;;1.30;0.80;;;8.10;99.90;;;;;;5117828;28;20028;-67
2022/02/04 17:55:40;;;;;;;1.45;0.93;;;8.10;99.90;;;;;;5117540;28;20031;-68
2022/02/04 17:58:21;;;;;;;1.63;0.93;;;8.10;99.90;;;;;;5116277;28;20044;-67
2022/02/04 18:00:59;;;;;;;3.58;0.90;;;8.10;99.90;;;;;;5114657;28;20408;-67
2022/02/04 18:03:36;;;;;;;1.20;0.93;;;8.10;99.90;;;;;;5115508;28;20058;-68
2022/02/04 18:06:14;;;;;;;3.13;1.10;;;8.10;99.90;;;;;;5113877;28;20016;-68
2022/02/04 18:08:39;;;;;;;1.60;0.93;;;8.20;99.90;;;;;;5115290;28;20024;-68
2022/02/04 18:11:05;;;;;;;2.60;1.00;;;8.20;99.90;;;;;;5115295;28;20030;-68
2022/02/04 18:13:32;;;;;;;1.60;0.95;;;8.30;99.90;;;;;;5114949;28;20050;-68
2022/02/04 18:16:00;;;;;;;3.30;0.90;;;8.30;99.90;;;;;;5113480;28;20053;-68
2022/02/04 18:18:27;;;;;;;2.40;1.00;;;8.30;99.90;;;;;;5113767;28;20391;-68
2022/02/04 18:20:53;;;;;;;2.13;1.08;;;8.30;99.90;;;;;;5115935;28;20052;-68
2022/02/04 18:23:20;;;;;;;6.00;2.28;;;8.30;99.90;;;;;;5116367;28;20024;-68
2022/02/04 18:25:51;;;;;;;3.55;1.20;;;8.30;99.90;;;;;;5114609;28;20020;-68
2022/02/04 18:28:17;;;;;;;2.30;1.08;;;8.30;99.90;;;;;;5114931;28;20578;-68
2022/02/04 18:30:42;;;;;;;1.55;0.90;;;8.40;99.90;;;;;;5114851;28;20031;-68
2022/02/04 18:33:09;;;;;;;3.33;1.30;;;8.40;99.90;;;;;;5114495;28;20046;-68
2022/02/04 18:35:35;;;;;;;5.00;1.70;;;8.40;99.90;;;;;;5114859;28;20019;-68
2022/02/04 18:43:53;;;;;;;2.83;1.35;;;8.40;99.90;;;;;;5115088;28;20032;-68
2022/02/04 18:48:51;;;;;;;2.27;1.27;;;8.30;99.90;;;;;;5114815;28;20024;-68
2022/02/04 18:51:37;;;;;;;2.40;1.40;;;8.30;99.90;;;;;;5114627;28;20030;-67
2022/02/04 18:57:07;;;;;;;2.10;1.20;;;8.40;99.90;;;;;;5114688;28;20028;-67
2022/02/04 18:59:38;;;;;;;3.50;1.20;;;8.40;99.90;;;;;;5114284;28;20416;-68
2022/02/04 19:02:03;;;;;;;1.90;1.10;;;8.40;99.90;;;;;;5114155;28;20103;-68
2022/02/04 19:04:36;;;;;;;4.57;1.53;;;8.40;99.90;;;;;;5114185;28;20040;-67
2022/02/04 19:07:09;;;;;;;2.42;1.40;;;8.40;99.90;;;;;;5114142;28;20276;-68
2022/02/04 19:09:36;;;;;;;2.67;1.27;;;8.40;99.90;;;;;;5114142;28;20380;-68
2022/02/04 19:12:10;;;;;;;3.03;1.35;;;8.40;99.90;;;;;;5112598;28;20027;-68
2022/02/04 19:17:09;;;;;;;2.47;1.10;;;8.40;99.90;;;;;;5114199;28;20063;-68
2022/02/04 19:24:42;;;;;;;1.95;1.20;;;8.40;99.90;;;;;;5114118;28;20031;-67
2022/02/04 19:27:07;;;;;;;3.30;1.60;;;8.40;99.90;;;;;;5113887;28;20039;-67
2022/02/04 19:29:35;;;;;;;7.67;3.10;;;8.50;99.90;;;;;;5114455;28;20023;-69
2022/02/04 19:32:03;;;;;;;2.20;0.98;;;8.50;99.90;;;;;;5117953;28;20388;-68
2022/02/04 19:34:29;;;;;;;3.30;0.98;;;8.50;99.90;;;;;;5117791;28;20024;-68
2022/02/04 19:36:56;;;;;;;1.67;0.83;;;8.60;99.90;;;;;;5117887;28;20080;-67
2022/02/04 19:39:28;;;;;;;1.45;0.70;;;8.50;99.90;;;;;;5116419;28;20213;-67